| Servicio Meteorologico Nacional.

Pronóstico antártico

Pronóstico antártico

TAF Marambio
 

FTAA SAWB 262300
TAF SAWB 262300Z 2700/2724 02020G35KT 9999 OVC010
TXM02/2718Z TNM05/2706Z
BECMG 2706/2707 VRB05KT 2000 BCFG BKN005 OVC020
BECMG 2712/2713 9999 SCT015
BECMG 2722/2723 07015KT=